Time;durP1;ratioP1;P1;durP2;ratioP2;P2;SDS_P1;SDS_P2;PMS_P1;PMS_P2;Temp;Humidity;BMP_temperature;BMP_pressure;BME280_temperature;BME280_humidity;BME280_pressure;Samples;Min_cycle;Max_cycle;Signal;HPM_P1;HPM_P2
2023/12/09 00:01:13;;;;;;;83.45;26.45;;;9.20;99.90;;;;;;5030832;28;20041;-52
2023/12/09 00:03:39;;;;;;;77.18;27.33;;;8.70;99.90;;;;;;5030649;28;20476;-50
2023/12/09 00:06:05;;;;;;;85.05;26.25;;;9.20;99.90;;;;;;5030864;28;20068;-51
2023/12/09 00:08:31;;;;;;;80.63;25.10;;;9.20;99.90;;;;;;5029813;28;20037;-50
2023/12/09 00:10:56;;;;;;;74.10;24.95;;;8.60;99.90;;;;;;5029957;28;20124;-48
2023/12/09 00:13:22;;;;;;;74.57;23.40;;;9.00;99.90;;;;;;5030731;28;20053;-50
2023/12/09 00:15:48;;;;;;;79.22;25.50;;;8.70;99.90;;;;;;5030422;28;20049;-49
2023/12/09 00:18:15;;;;;;;74.32;24.02;;;8.80;99.90;;;;;;5029032;28;20088;-51
2023/12/09 00:20:40;;;;;;;81.88;25.05;;;8.60;99.90;;;;;;5029812;28;20049;-50
2023/12/09 00:23:06;;;;;;;66.05;24.67;;;8.60;99.90;;;;;;5030407;28;20045;-52
2023/12/09 00:25:32;;;;;;;73.22;22.35;;;9.00;99.90;;;;;;5030363;28;20116;-52
2023/12/09 00:27:57;;;;;;;82.47;23.50;;;8.60;99.90;;;;;;5029281;28;20065;-52
2023/12/09 00:30:24;;;;;;;68.20;24.05;;;9.30;99.90;;;;;;5030757;28;20037;-52
2023/12/09 00:32:49;;;;;;;75.40;24.38;;;9.30;99.90;;;;;;5028657;28;20046;-53
2023/12/09 00:35:15;;;;;;;68.28;23.52;;;8.60;99.90;;;;;;5032804;28;20103;-53
2023/12/09 00:37:41;;;;;;;72.95;24.50;;;9.20;99.90;;;;;;5033620;28;20392;-51
2023/12/09 00:40:07;;;;;;;67.75;21.83;;;9.30;99.90;;;;;;5029595;28;20045;-51
2023/12/09 00:42:33;;;;;;;66.22;23.10;;;9.40;99.90;;;;;;5033394;28;20045;-50
2023/12/09 00:44:59;;;;;;;65.05;22.23;;;8.90;99.90;;;;;;5015958;28;20041;-50
2023/12/09 00:47:24;;;;;;;64.15;21.98;;;8.60;99.90;;;;;;5032575;28;20033;-50
2023/12/09 00:49:50;;;;;;;68.82;22.30;;;9.30;99.90;;;;;;5034088;28;20036;-49
2023/12/09 00:52:16;;;;;;;59.80;23.05;;;8.90;99.90;;;;;;5033680;28;20052;-50
2023/12/09 00:54:41;;;;;;;65.82;23.10;;;8.60;99.90;;;;;;5034143;28;20037;-48
2023/12/09 00:57:07;;;;;;;63.25;21.05;;;9.00;99.90;;;;;;5034234;28;20045;-50
2023/12/09 00:59:33;;;;;;;65.65;21.58;;;8.80;99.90;;;;;;5034031;28;20477;-50
2023/12/09 01:01:59;;;;;;;76.63;23.40;;;9.20;99.90;;;;;;5034016;28;20048;-51
2023/12/09 01:04:25;;;;;;;65.75;21.95;;;8.80;99.90;;;;;;5034178;28;20480;-51
2023/12/09 01:06:50;;;;;;;65.82;22.83;;;9.00;99.90;;;;;;5033983;28;20037;-52
2023/12/09 01:09:16;;;;;;;63.53;22.83;;;9.20;99.90;;;;;;5033775;28;20460;-50
2023/12/09 01:11:42;;;;;;;64.35;22.73;;;8.60;99.90;;;;;;5033682;28;20044;-48
2023/12/09 01:14:07;;;;;;;61.90;22.40;;;8.90;99.90;;;;;;5031084;28;20041;-51
2023/12/09 01:16:33;;;;;;;77.40;22.77;;;8.80;99.90;;;;;;5031495;28;20111;-51
2023/12/09 01:18:59;;;;;;;65.53;21.95;;;8.50;99.90;;;;;;5033532;28;20489;-52
2023/12/09 01:21:25;;;;;;;57.28;21.38;;;8.50;99.90;;;;;;5033433;28;20052;-51
2023/12/09 01:23:50;;;;;;;61.40;22.15;;;9.10;99.90;;;;;;5027506;28;20114;-50
2023/12/09 01:26:16;;;;;;;62.45;21.92;;;9.20;99.90;;;;;;5033536;28;20057;-48
2023/12/09 01:28:42;;;;;;;67.97;21.05;;;9.30;99.90;;;;;;5033680;28;20040;-52
2023/12/09 01:31:07;;;;;;;69.20;21.77;;;9.20;99.90;;;;;;5033554;28;20579;-53
2023/12/09 01:33:33;;;;;;;65.97;21.70;;;9.10;99.90;;;;;;5030732;28;20045;-52
2023/12/09 01:35:59;;;;;;;65.45;22.23;;;8.80;99.90;;;;;;5030354;28;20037;-47
2023/12/09 01:38:24;;;;;;;59.95;21.63;;;9.20;99.90;;;;;;5033205;28;20071;-49
2023/12/09 01:40:54;;;;;;;60.20;21.83;;;9.20;99.90;;;;;;5033071;28;20037;-49
2023/12/09 01:43:20;;;;;;;58.10;21.42;;;9.30;99.90;;;;;;5030691;28;20129;-50
2023/12/09 01:45:46;;;;;;;56.05;20.73;;;9.10;99.90;;;;;;5030656;28;20049;-48
2023/12/09 01:48:13;;;;;;;66.60;21.25;;;8.80;99.90;;;;;;5032687;28;20072;-50
2023/12/09 01:50:38;;;;;;;63.95;21.02;;;8.90;99.90;;;;;;5033009;28;20546;-50
2023/12/09 01:53:05;;;;;;;67.45;21.67;;;8.50;99.90;;;;;;5032093;28;20045;-51
2023/12/09 01:55:32;;;;;;;54.30;20.88;;;8.50;99.90;;;;;;5032794;28;20048;-51
2023/12/09 01:57:58;;;;;;;72.45;21.15;;;9.20;99.90;;;;;;5032637;28;20554;-49
2023/12/09 02:00:24;;;;;;;60.38;20.27;;;9.20;99.90;;;;;;5033036;28;20065;-52
2023/12/09 02:02:49;;;;;;;58.13;21.77;;;8.50;99.90;;;;;;5032728;28;20045;-53
2023/12/09 02:05:15;;;;;;;53.60;19.75;;;8.50;99.90;;;;;;5031821;28;20473;-51
2023/12/09 02:07:41;;;;;;;64.10;20.33;;;9.20;99.90;;;;;;5030476;28;20044;-48
2023/12/09 02:10:07;;;;;;;59.80;20.45;;;9.20;99.90;;;;;;5027892;28;20038;-52
2023/12/09 02:12:42;;;;;;;55.55;19.60;;;8.50;99.90;;;;;;5030758;28;20040;-50
2023/12/09 02:15:23;;;;;;;63.08;18.70;;;8.40;99.90;;;;;;5032819;28;20041;-52
2023/12/09 02:18:09;;;;;;;61.55;19.25;;;8.50;99.90;;;;;;4992686;28;20138;-48
2023/12/09 02:20:35;;;;;;;48.47;17.83;;;9.10;99.90;;;;;;4992409;28;20050;-51
2023/12/09 02:23:08;;;;;;;62.13;19.33;;;8.90;99.90;;;;;;4992639;28;20528;-48
2023/12/09 02:25:35;;;;;;;62.42;19.75;;;8.40;99.90;;;;;;4992616;28;20040;-52
2023/12/09 02:28:28;;;;;;;57.33;19.45;;;9.00;99.90;;;;;;4992822;28;20046;-52
2023/12/09 02:31:11;;;;;;;57.67;18.38;;;8.40;99.90;;;;;;4992801;28;20045;-50
2023/12/09 02:33:43;;;;;;;51.92;18.30;;;8.70;99.90;;;;;;4992951;28;20042;-49
2023/12/09 02:36:12;;;;;;;56.72;18.35;;;8.30;99.90;;;;;;4990778;28;20069;-52
2023/12/09 02:38:39;;;;;;;50.50;18.23;;;9.00;99.90;;;;;;4990346;28;20039;-51
2023/12/09 02:41:09;;;;;;;63.05;18.48;;;8.20;99.90;;;;;;4990356;28;20076;-52
2023/12/09 02:43:35;;;;;;;48.42;18.70;;;8.50;99.90;;;;;;4992222;28;20042;-49
2023/12/09 02:46:01;;;;;;;52.00;16.90;;;8.90;99.90;;;;;;4989312;28;20039;-50
2023/12/09 02:48:26;;;;;;;50.72;17.85;;;8.40;99.90;;;;;;4992465;28;20398;-51
2023/12/09 02:50:52;;;;;;;47.65;17.80;;;8.20;99.90;;;;;;4992789;28;20042;-50
2023/12/09 02:53:18;;;;;;;59.33;17.98;;;8.90;99.90;;;;;;4986350;28;20397;-52
2023/12/09 02:55:43;;;;;;;42.30;16.50;;;9.10;99.90;;;;;;4990791;28;20104;-50
2023/12/09 02:58:09;;;;;;;61.47;18.08;;;8.80;99.90;;;;;;4990983;28;20441;-49
2023/12/09 03:00:35;;;;;;;61.47;17.83;;;8.10;99.90;;;;;;4992028;28;20034;-51
2023/12/09 03:03:00;;;;;;;48.88;17.13;;;9.00;99.90;;;;;;4992359;28;20038;-51
2023/12/09 03:05:26;;;;;;;53.63;16.98;;;8.90;99.90;;;;;;4992076;28;20129;-50
2023/12/09 03:07:52;;;;;;;44.83;16.13;;;8.80;99.90;;;;;;4991914;28;20438;-50
2023/12/09 03:10:17;;;;;;;47.72;16.25;;;8.90;99.90;;;;;;4991674;28;20046;-51
2023/12/09 03:12:43;;;;;;;53.53;18.23;;;8.20;99.90;;;;;;4991545;28;20046;-50
2023/12/09 03:15:09;;;;;;;60.90;17.25;;;8.20;99.90;;;;;;4991673;28;20368;-49
2023/12/09 03:17:36;;;;;;;46.83;16.13;;;8.90;99.90;;;;;;5010990;28;20125;-51
2023/12/09 03:20:02;;;;;;;50.88;16.05;;;8.70;99.90;;;;;;5010940;28;20495;-51
2023/12/09 03:22:29;;;;;;;51.90;16.02;;;9.00;99.90;;;;;;5011506;28;20041;-49
2023/12/09 03:24:55;;;;;;;43.00;15.95;;;8.30;99.90;;;;;;5010466;28;20113;-51
2023/12/09 03:27:21;;;;;;;46.42;16.25;;;8.60;99.90;;;;;;5010976;28;20117;-48
2023/12/09 03:29:46;;;;;;;47.35;17.33;;;8.60;99.90;;;;;;5011239;28;20033;-50
2023/12/09 03:32:12;;;;;;;50.60;15.07;;;8.30;99.90;;;;;;5011369;28;20444;-50
2023/12/09 03:34:38;;;;;;;54.50;16.58;;;9.00;99.90;;;;;;5009682;28;20041;-52
2023/12/09 03:37:03;;;;;;;45.63;15.40;;;8.90;99.90;;;;;;5011195;28;20041;-47
2023/12/09 03:39:29;;;;;;;47.95;15.35;;;8.80;99.90;;;;;;5006162;28;20133;-52
2023/12/09 03:41:55;;;;;;;37.63;15.40;;;8.30;99.90;;;;;;5010900;28;20049;-50
2023/12/09 03:44:21;;;;;;;46.38;15.45;;;8.60;99.90;;;;;;5009865;28;20072;-52
2023/12/09 03:46:46;;;;;;;51.13;16.08;;;9.00;99.90;;;;;;5011148;28;20124;-51
2023/12/09 03:49:12;;;;;;;45.78;14.85;;;8.40;99.90;;;;;;5011100;28;20540;-51
2023/12/09 03:51:38;;;;;;;41.65;15.60;;;8.20;99.90;;;;;;5011357;28;20501;-53
2023/12/09 03:54:03;;;;;;;41.30;14.68;;;8.90;99.90;;;;;;5011222;28;20487;-51
2023/12/09 03:56:29;;;;;;;47.55;15.05;;;9.00;99.90;;;;;;5011092;28;20393;-50
2023/12/09 03:58:55;;;;;;;43.90;15.60;;;8.10;99.90;;;;;;5009525;28;20050;-53
2023/12/09 04:01:24;;;;;;;54.55;15.10;;;9.00;99.90;;;;;;5010820;28;20045;-47
2023/12/09 04:03:50;;;;;;;42.83;14.00;;;8.60;99.90;;;;;;5009605;28;20041;-50
2023/12/09 04:06:16;;;;;;;46.42;14.57;;;8.20;99.90;;;;;;5010788;28;20037;-52
2023/12/09 04:08:42;;;;;;;45.75;14.43;;;8.30;99.90;;;;;;5011348;28;20132;-49
2023/12/09 04:11:07;;;;;;;40.20;15.48;;;9.00;99.90;;;;;;5016561;28;20066;-50
2023/12/09 04:13:33;;;;;;;55.25;15.63;;;8.50;99.90;;;;;;5017218;28;20056;-51
2023/12/09 04:16:00;;;;;;;44.38;14.50;;;8.30;99.90;;;;;;5023756;28;20097;-49
2023/12/09 04:18:25;;;;;;;51.45;15.18;;;8.60;99.90;;;;;;5037465;28;20495;-52
2023/12/09 04:20:51;;;;;;;42.05;14.65;;;8.40;99.90;;;;;;5037364;28;20037;-51
2023/12/09 04:23:18;;;;;;;50.17;15.15;;;9.00;99.90;;;;;;5032193;28;20232;-52
2023/12/09 04:25:44;;;;;;;46.38;15.32;;;8.30;99.90;;;;;;5035394;28;20045;-48
2023/12/09 04:28:11;;;;;;;49.78;14.90;;;8.30;99.90;;;;;;5036965;28;20234;-48
2023/12/09 04:30:37;;;;;;;42.42;15.00;;;8.20;99.90;;;;;;5036010;28;20457;-50
2023/12/09 04:33:03;;;;;;;44.83;14.35;;;8.20;99.90;;;;;;5036355;28;20397;-50
2023/12/09 04:35:29;;;;;;;48.22;14.73;;;9.00;99.90;;;;;;5036858;28;20212;-54
2023/12/09 04:37:55;;;;;;;40.60;14.20;;;8.30;99.90;;;;;;5037148;28;20030;-50
2023/12/09 04:40:21;;;;;;;41.40;15.32;;;8.20;99.90;;;;;;5036280;28;20037;-50
2023/12/09 04:42:47;;;;;;;44.47;14.32;;;8.90;99.90;;;;;;5035104;28;20535;-49
2023/12/09 04:45:13;;;;;;;44.25;14.13;;;8.30;99.90;;;;;;5034731;28;20125;-52
2023/12/09 04:47:39;;;;;;;51.97;13.98;;;8.30;99.90;;;;;;5036815;28;20524;-49
2023/12/09 04:50:08;;;;;;;46.95;14.45;;;8.30;99.90;;;;;;5036618;28;20068;-51
2023/12/09 04:52:35;;;;;;;42.95;12.65;;;8.90;99.90;;;;;;5035261;28;20077;-53
2023/12/09 04:55:01;;;;;;;48.47;13.80;;;8.30;99.90;;;;;;5036368;28;20295;-48
2023/12/09 04:57:27;;;;;;;38.00;14.30;;;8.60;99.90;;;;;;5036388;28;20128;-52
2023/12/09 04:59:53;;;;;;;53.08;14.65;;;8.50;99.90;;;;;;5036695;28;20052;-51
2023/12/09 05:02:20;;;;;;;50.70;13.82;;;8.50;99.90;;;;;;5036481;28;20049;-50
2023/12/09 05:04:46;;;;;;;44.90;13.52;;;8.10;99.90;;;;;;5037001;28;20042;-50
2023/12/09 05:07:12;;;;;;;41.38;14.52;;;8.10;99.90;;;;;;5036822;28;20037;-47
2023/12/09 05:09:37;;;;;;;43.45;13.70;;;9.10;99.90;;;;;;5030838;28;20041;-50
2023/12/09 05:12:04;;;;;;;47.10;13.63;;;9.00;99.90;;;;;;5035632;28;20060;-50
2023/12/09 05:14:29;;;;;;;49.53;14.30;;;8.70;99.90;;;;;;5036258;28;20042;-49
2023/12/09 05:16:55;;;;;;;43.05;13.15;;;8.80;99.90;;;;;;5036038;28;20056;-49
2023/12/09 05:19:21;;;;;;;45.40;13.60;;;8.80;99.90;;;;;;5036275;28;20401;-50
2023/12/09 05:21:46;;;;;;;38.25;12.77;;;8.10;99.90;;;;;;5034037;28;20052;-52
2023/12/09 05:24:12;;;;;;;31.80;12.55;;;8.30;99.90;;;;;;5033313;28;20037;-48
2023/12/09 05:26:38;;;;;;;33.25;12.93;;;8.80;99.90;;;;;;5033396;28;20037;-51
2023/12/09 05:29:04;;;;;;;36.22;13.23;;;8.60;99.90;;;;;;5032873;28;20060;-52
2023/12/09 05:31:30;;;;;;;39.50;12.80;;;8.10;99.90;;;;;;5033351;28;20381;-51
2023/12/09 05:33:55;;;;;;;43.08;13.32;;;8.00;99.90;;;;;;5029967;28;20044;-49
2023/12/09 05:36:21;;;;;;;38.92;12.25;;;8.60;99.90;;;;;;5033330;28;20038;-53
2023/12/09 05:38:47;;;;;;;39.08;13.02;;;8.40;99.90;;;;;;5033198;28;20123;-48
2023/12/09 05:41:13;;;;;;;45.53;13.00;;;8.10;99.90;;;;;;5032592;28;20470;-50
2023/12/09 05:43:39;;;;;;;35.35;13.05;;;8.00;99.90;;;;;;5032841;28;20100;-51
2023/12/09 05:46:05;;;;;;;44.17;12.90;;;7.80;99.90;;;;;;5027733;28;20033;-51
2023/12/09 05:48:34;;;;;;;38.30;12.18;;;7.80;99.90;;;;;;5033244;28;20120;-51
2023/12/09 05:51:01;;;;;;;39.60;13.30;;;8.50;99.90;;;;;;5031607;28;20041;-50
2023/12/09 05:53:26;;;;;;;37.15;12.35;;;7.60;99.90;;;;;;5027023;28;20052;-50
2023/12/09 05:55:52;;;;;;;29.77;11.90;;;7.70;99.90;;;;;;5032173;28;20128;-50
2023/12/09 05:58:18;;;;;;;37.20;11.88;;;8.40;99.90;;;;;;5031266;28;20049;-51
2023/12/09 06:00:44;;;;;;;50.25;14.63;;;8.40;99.90;;;;;;5029104;28;20546;-50
2023/12/09 06:03:10;;;;;;;45.20;13.95;;;8.40;99.90;;;;;;5031637;28;20385;-54
2023/12/09 06:05:36;;;;;;;42.25;13.02;;;7.70;99.90;;;;;;5032067;28;20277;-52
2023/12/09 06:08:01;;;;;;;42.08;12.77;;;8.50;99.90;;;;;;5032900;28;20041;-49
2023/12/09 06:10:27;;;;;;;41.58;11.98;;;8.50;99.90;;;;;;5032491;28;20491;-53
2023/12/09 06:12:53;;;;;;;38.65;12.65;;;8.00;99.90;;;;;;5032380;28;20440;-49
2023/12/09 06:15:19;;;;;;;45.60;12.30;;;8.60;99.90;;;;;;5032506;28;20048;-48
2023/12/09 06:17:44;;;;;;;41.95;11.93;;;8.50;99.90;;;;;;5032570;28;20569;-51
2023/12/09 06:20:10;;;;;;;39.05;11.77;;;7.90;99.90;;;;;;5031502;28;20044;-50
2023/12/09 06:22:36;;;;;;;40.72;11.65;;;7.80;99.90;;;;;;5031797;28;20096;-49
2023/12/09 06:25:02;;;;;;;47.50;11.60;;;7.80;99.90;;;;;;5029733;28;20470;-52
2023/12/09 06:27:27;;;;;;;39.88;10.65;;;8.60;99.90;;;;;;5032077;28;20033;-48
2023/12/09 06:29:53;;;;;;;37.63;11.38;;;8.60;99.90;;;;;;5030358;28;20057;-50
2023/12/09 06:32:18;;;;;;;37.72;10.95;;;8.60;99.90;;;;;;5031214;28;20128;-50
2023/12/09 06:34:44;;;;;;;39.20;11.50;;;8.70;99.90;;;;;;5032221;28;20048;-54
2023/12/09 06:37:10;;;;;;;31.02;11.15;;;7.90;99.90;;;;;;5032310;28;20048;-50
2023/12/09 06:39:36;;;;;;;30.85;10.07;;;8.60;99.90;;;;;;5028099;28;20074;-50
2023/12/09 06:42:02;;;;;;;34.45;10.32;;;8.00;99.90;;;;;;5030085;28;20050;-49
2023/12/09 06:44:27;;;;;;;47.17;10.80;;;8.10;99.90;;;;;;5031382;28;20040;-51
2023/12/09 06:46:53;;;;;;;36.55;10.15;;;8.00;99.90;;;;;;5030688;28;20136;-52
2023/12/09 06:49:19;;;;;;;37.50;9.95;;;8.30;99.90;;;;;;5031234;28;20029;-47
2023/12/09 06:51:45;;;;;;;40.45;9.30;;;8.60;99.90;;;;;;5031934;28;20037;-50
2023/12/09 06:54:11;;;;;;;29.85;10.10;;;7.90;99.90;;;;;;5031595;28;20037;-51
2023/12/09 06:56:37;;;;;;;31.30;9.70;;;8.60;99.90;;;;;;5031317;28;20045;-51
2023/12/09 06:59:03;;;;;;;39.78;9.68;;;8.30;99.90;;;;;;5029540;28;20615;-52
2023/12/09 07:01:29;;;;;;;34.70;11.52;;;8.30;99.90;;;;;;5027091;28;20037;-51
2023/12/09 07:03:55;;;;;;;35.50;9.95;;;8.50;99.90;;;;;;5028769;28;20033;-48
2023/12/09 07:06:27;;;;;;;31.02;9.82;;;8.30;99.90;;;;;;5031027;28;20040;-51
2023/12/09 07:08:53;;;;;;;32.65;9.95;;;8.10;99.90;;;;;;5030768;28;20382;-50
2023/12/09 07:11:21;;;;;;;39.33;12.63;;;8.00;99.90;;;;;;5029817;28;20059;-51
2023/12/09 07:13:47;;;;;;;30.80;10.10;;;8.00;99.90;;;;;;5030762;28;20052;-48
2023/12/09 07:16:13;;;;;;;34.08;10.75;;;8.70;99.90;;;;;;5030958;28;20104;-52
2023/12/09 07:18:43;;;;;;;35.88;9.70;;;8.50;99.90;;;;;;5028995;28;20104;-51
2023/12/09 07:21:10;;;;;;;35.10;10.00;;;8.00;99.90;;;;;;5029868;28;20072;-51
2023/12/09 07:23:36;;;;;;;27.95;10.43;;;7.80;99.90;;;;;;5024978;28;20119;-52
2023/12/09 07:26:02;;;;;;;33.72;10.63;;;8.00;99.90;;;;;;5029857;28;20432;-47
2023/12/09 07:28:31;;;;;;;29.67;9.95;;;8.10;99.90;;;;;;5030608;28;20066;-49
2023/12/09 07:30:57;;;;;;;33.42;10.38;;;7.90;99.90;;;;;;5029636;28;20043;-53
2023/12/09 07:33:23;;;;;;;31.52;9.15;;;8.30;99.90;;;;;;5031125;28;20041;-51
2023/12/09 07:35:49;;;;;;;40.58;9.07;;;8.30;99.90;;;;;;5029667;28;20041;-48
2023/12/09 07:38:14;;;;;;;23.90;8.95;;;8.10;99.90;;;;;;5029249;28;20037;-50
2023/12/09 07:40:41;;;;;;;34.67;8.65;;;8.50;99.90;;;;;;5030222;28;20207;-50
2023/12/09 07:43:07;;;;;;;30.77;8.57;;;7.70;99.90;;;;;;5029144;28;20110;-49
2023/12/09 07:45:33;;;;;;;29.65;8.13;;;8.10;99.90;;;;;;5028745;28;20049;-50
2023/12/09 07:47:59;;;;;;;30.92;8.55;;;8.60;99.90;;;;;;5030733;28;20411;-51
2023/12/09 07:50:24;;;;;;;39.97;8.45;;;7.80;99.90;;;;;;5029475;28;20095;-47
2023/12/09 07:52:50;;;;;;;25.83;7.68;;;8.00;99.90;;;;;;5030732;28;20529;-50
2023/12/09 07:55:16;;;;;;;27.80;8.00;;;7.90;99.90;;;;;;5030580;28;20501;-48
2023/12/09 07:57:42;;;;;;;32.60;7.25;;;8.30;99.90;;;;;;5030492;28;20504;-51
2023/12/09 08:00:09;;;;;;;27.17;7.97;;;8.30;99.90;;;;;;5030868;28;20099;-48
2023/12/09 08:02:34;;;;;;;30.42;7.05;;;8.30;99.90;;;;;;5029193;28;20112;-51
2023/12/09 08:05:00;;;;;;;28.05;7.20;;;8.10;99.90;;;;;;5029662;28;20037;-50
2023/12/09 08:07:26;;;;;;;26.27;7.13;;;8.00;99.90;;;;;;5030683;28;20055;-50
2023/12/09 08:09:52;;;;;;;23.00;6.22;;;8.30;99.90;;;;;;5025554;28;20473;-48
2023/12/09 08:12:17;;;;;;;25.35;7.30;;;7.70;99.90;;;;;;5030470;28;20041;-47
2023/12/09 08:14:43;;;;;;;20.85;7.10;;;8.20;99.90;;;;;;5030502;28;20067;-50
2023/12/09 08:17:09;;;;;;;25.58;7.10;;;7.60;99.90;;;;;;5030281;28;20049;-47
2023/12/09 08:19:34;;;;;;;22.50;6.82;;;8.20;99.90;;;;;;5030683;28;20052;-49
2023/12/09 08:22:00;;;;;;;22.13;6.10;;;8.30;99.90;;;;;;5030450;28;20033;-51
2023/12/09 08:24:26;;;;;;;29.95;6.80;;;8.20;99.90;;;;;;5030409;28;20446;-48
2023/12/09 08:26:51;;;;;;;26.05;6.80;;;7.50;99.90;;;;;;5030674;28;20044;-50
2023/12/09 08:29:17;;;;;;;27.08;6.53;;;8.40;99.90;;;;;;5027126;28;20112;-48
2023/12/09 08:31:49;;;;;;;28.30;7.60;;;7.50;99.90;;;;;;5029907;28;20037;-48
2023/12/09 08:34:18;;;;;;;27.55;6.63;;;7.70;99.90;;;;;;5025053;28;20364;-51
2023/12/09 08:36:47;;;;;;;21.90;5.75;;;7.80;99.90;;;;;;5021405;28;20527;-49
2023/12/09 08:39:14;;;;;;;28.23;6.72;;;7.50;99.90;;;;;;5022433;28;20073;-48
2023/12/09 08:41:39;;;;;;;19.17;5.35;;;7.70;99.90;;;;;;5021915;28;20069;-51
2023/12/09 08:44:06;;;;;;;21.98;5.93;;;7.50;99.90;;;;;;5022075;28;20534;-48
2023/12/09 08:46:32;;;;;;;18.17;5.20;;;7.50;99.90;;;;;;5021960;28;20034;-48
2023/12/09 08:48:58;;;;;;;24.35;6.13;;;8.10;99.90;;;;;;5022211;28;20038;-49
2023/12/09 08:51:24;;;;;;;18.73;5.25;;;8.10;99.90;;;;;;5020527;28;20037;-51
2023/12/09 08:53:50;;;;;;;21.92;5.72;;;8.00;99.90;;;;;;5017676;28;20033;-52
2023/12/09 08:56:16;;;;;;;25.05;5.38;;;8.20;99.90;;;;;;5021558;28;20358;-52
2023/12/09 08:58:42;;;;;;;21.92;4.90;;;8.10;99.90;;;;;;5025695;28;20111;-49
2023/12/09 09:01:08;;;;;;;25.48;4.85;;;8.30;99.90;;;;;;5023856;28;20477;-47
2023/12/09 09:03:34;;;;;;;26.65;5.15;;;7.70;99.90;;;;;;5025919;28;20470;-50
2023/12/09 09:06:00;;;;;;;26.23;5.05;;;7.80;99.90;;;;;;5026081;28;20067;-49
2023/12/09 09:08:25;;;;;;;17.10;4.10;;;7.80;99.90;;;;;;5025757;28;20664;-50
2023/12/09 09:10:51;;;;;;;14.65;5.00;;;7.90;99.90;;;;;;5025674;28;20370;-49
2023/12/09 09:13:17;;;;;;;19.77;5.07;;;8.40;99.90;;;;;;5026099;28;20038;-49
2023/12/09 09:15:42;;;;;;;20.55;4.47;;;7.90;99.90;;;;;;5021406;28;20123;-47
2023/12/09 09:18:08;;;;;;;14.38;4.57;;;8.30;99.90;;;;;;5024459;28;20180;-51
2023/12/09 09:20:34;;;;;;;24.88;5.35;;;8.00;99.90;;;;;;5025654;28;20091;-51
2023/12/09 09:23:00;;;;;;;21.73;4.10;;;8.40;99.90;;;;;;5024173;28;20041;-49
2023/12/09 09:25:26;;;;;;;17.30;4.43;;;8.40;99.90;;;;;;5025296;28;20041;-51
2023/12/09 09:27:52;;;;;;;14.82;3.75;;;8.20;99.90;;;;;;5025046;28;20045;-48
2023/12/09 09:30:22;;;;;;;24.27;4.53;;;8.00;99.90;;;;;;5026324;28;20037;-50
2023/12/09 09:32:47;;;;;;;20.20;4.25;;;8.50;99.90;;;;;;5025481;28;20052;-47
2023/12/09 09:35:13;;;;;;;28.38;4.75;;;8.00;99.90;;;;;;5025581;28;20033;-51
2023/12/09 09:37:39;;;;;;;16.98;3.70;;;8.60;99.90;;;;;;5024141;28;20047;-49
2023/12/09 09:40:05;;;;;;;22.35;4.05;;;8.10;99.90;;;;;;5020246;28;20136;-47
2023/12/09 09:42:37;;;;;;;22.63;4.47;;;8.30;99.90;;;;;;5023034;28;20060;-48
2023/12/09 09:45:11;;;;;;;20.88;3.92;;;8.70;99.90;;;;;;5025935;28;20038;-47
2023/12/09 09:47:37;;;;;;;15.15;4.10;;;8.70;99.90;;;;;;5023801;28;20457;-48
2023/12/09 09:50:08;;;;;;;15.85;3.70;;;8.30;99.90;;;;;;5012576;28;20030;-47
2023/12/09 09:52:40;;;;;;;20.25;3.80;;;8.70;99.90;;;;;;5014661;28;20030;-49
2023/12/09 09:55:07;;;;;;;18.20;3.92;;;8.50;99.90;;;;;;5012708;28;20042;-51
2023/12/09 09:57:36;;;;;;;21.17;4.32;;;8.30;99.90;;;;;;5015164;28;20494;-51
2023/12/09 10:00:12;;;;;;;18.08;4.68;;;8.70;99.90;;;;;;5015344;28;20121;-49
2023/12/09 10:02:43;;;;;;;16.35;3.63;;;8.40;99.90;;;;;;5014165;28;20117;-50
2023/12/09 10:05:10;;;;;;;16.88;3.83;;;8.40;99.90;;;;;;5013742;28;20497;-48
2023/12/09 10:07:39;;;;;;;15.73;3.78;;;8.40;99.90;;;;;;5010511;28;20033;-53
2023/12/09 10:10:09;;;;;;;12.63;3.35;;;8.50;99.90;;;;;;5012369;28;20128;-51
2023/12/09 10:12:35;;;;;;;18.10;3.20;;;8.50;99.90;;;;;;5021723;28;20087;-48
2023/12/09 10:15:02;;;;;;;16.27;2.95;;;8.70;99.90;;;;;;5014359;28;20481;-45
2023/12/09 10:17:29;;;;;;;13.05;3.00;;;8.80;99.90;;;;;;5014282;28;20060;-47
2023/12/09 10:19:55;;;;;;;18.73;3.83;;;8.60;99.90;;;;;;5012372;28;20044;-51
2023/12/09 10:22:21;;;;;;;18.60;3.50;;;8.60;99.90;;;;;;5010462;28;20398;-51
2023/12/09 10:24:50;;;;;;;12.07;2.83;;;8.40;99.90;;;;;;5009627;28;20046;-48
2023/12/09 10:27:23;;;;;;;16.17;3.10;;;8.50;99.90;;;;;;5012235;28;20041;-47
2023/12/09 10:29:50;;;;;;;11.00;2.78;;;8.40;99.90;;;;;;5013814;28;20068;-49
2023/12/09 10:32:16;;;;;;;22.20;3.35;;;8.50;99.90;;;;;;5013942;28;20037;-47
2023/12/09 10:34:42;;;;;;;14.68;3.17;;;8.70;99.90;;;;;;5013014;28;20520;-49
2023/12/09 10:37:09;;;;;;;13.80;2.75;;;8.50;99.90;;;;;;5015792;28;20065;-49
2023/12/09 10:39:35;;;;;;;15.10;2.78;;;8.70;99.90;;;;;;5016043;28;20083;-51
2023/12/09 10:42:03;;;;;;;10.13;2.80;;;8.70;99.90;;;;;;5011815;28;20445;-46
2023/12/09 10:44:30;;;;;;;17.38;2.90;;;8.60;99.90;;;;;;5013056;28;20028;-47
2023/12/09 10:46:56;;;;;;;11.32;2.65;;;8.60;99.90;;;;;;5012814;28;20046;-52
2023/12/09 10:49:22;;;;;;;17.30;2.92;;;8.90;99.90;;;;;;5012557;28;20064;-51
2023/12/09 10:51:47;;;;;;;12.10;2.55;;;8.90;99.90;;;;;;5011119;28;20042;-49
2023/12/09 10:54:13;;;;;;;9.98;3.42;;;8.60;99.90;;;;;;5010789;28;20058;-50
2023/12/09 10:56:39;;;;;;;9.40;2.90;;;8.80;99.90;;;;;;5009702;28;20046;-48
2023/12/09 10:59:06;;;;;;;13.00;2.83;;;9.20;99.90;;;;;;5009519;28;20440;-48
2023/12/09 11:01:31;;;;;;;11.32;2.30;;;8.70;99.90;;;;;;5012125;28;20069;-50
2023/12/09 11:03:58;;;;;;;13.80;2.67;;;8.60;99.90;;;;;;5013265;28;20454;-48
2023/12/09 11:06:29;;;;;;;10.15;2.40;;;8.90;99.90;;;;;;5012316;28;20029;-50
2023/12/09 11:08:56;;;;;;;8.27;2.05;;;8.90;99.90;;;;;;5010163;28;20029;-50
2023/12/09 11:11:21;;;;;;;18.50;2.95;;;8.80;99.90;;;;;;5012882;28;20065;-52
2023/12/09 11:13:48;;;;;;;12.68;2.97;;;8.80;99.90;;;;;;5011456;28;20432;-49
2023/12/09 11:16:21;;;;;;;16.33;2.85;;;8.70;99.90;;;;;;5013926;28;20073;-50
2023/12/09 11:18:57;;;;;;;14.25;2.85;;;8.90;99.90;;;;;;5013660;28;20065;-48
2023/12/09 11:21:26;;;;;;;10.88;2.50;;;8.70;99.90;;;;;;5013619;28;20073;-50
2023/12/09 11:23:53;;;;;;;16.55;2.75;;;9.00;99.90;;;;;;5012774;28;20517;-50
2023/12/09 11:26:33;;;;;;;8.93;2.47;;;8.90;99.90;;;;;;5015257;28;20042;-49
2023/12/09 11:28:59;;;;;;;13.88;2.70;;;8.80;99.90;;;;;;5018922;28;20038;-49
2023/12/09 11:31:49;;;;;;;9.18;2.30;;;9.00;99.90;;;;;;5027060;28;20088;-49
2023/12/09 11:34:19;;;;;;;9.95;2.20;;;9.00;99.90;;;;;;5022574;28;20485;-49
2023/12/09 11:36:46;;;;;;;8.35;1.95;;;8.70;99.90;;;;;;5023656;28;20037;-49
2023/12/09 11:39:17;;;;;;;10.85;2.63;;;8.70;99.90;;;;;;5027439;28;20034;-48
2023/12/09 11:41:44;;;;;;;13.93;2.63;;;8.80;99.90;;;;;;5027773;28;20131;-50
2023/12/09 11:44:11;;;;;;;9.23;2.17;;;8.80;99.90;;;;;;5027867;28;20038;-49
2023/12/09 11:46:37;;;;;;;13.55;2.33;;;9.00;99.90;;;;;;5027480;28;20045;-49
2023/12/09 11:49:05;;;;;;;15.30;3.30;;;8.90;99.90;;;;;;5027561;28;20041;-49
2023/12/09 11:51:33;;;;;;;9.50;2.28;;;9.00;99.90;;;;;;5027870;28;20041;-52
2023/12/09 11:54:01;;;;;;;12.02;2.40;;;8.90;99.90;;;;;;5027818;28;20045;-49
2023/12/09 11:56:27;;;;;;;15.10;3.50;;;8.90;99.90;;;;;;5027408;28;20041;-47
2023/12/09 11:58:54;;;;;;;15.25;2.65;;;8.80;99.90;;;;;;5028203;28;20077;-50
2023/12/09 12:01:21;;;;;;;7.90;2.10;;;9.10;99.90;;;;;;5028202;28;20048;-49
2023/12/09 12:03:47;;;;;;;15.05;2.55;;;9.00;99.90;;;;;;5027713;28;20037;-48
2023/12/09 12:06:17;;;;;;;10.63;2.53;;;9.00;99.90;;;;;;5021455;28;20037;-50
2023/12/09 12:08:45;;;;;;;10.23;2.03;;;9.00;99.90;;;;;;5027000;28;20072;-46
2023/12/09 12:11:11;;;;;;;10.23;2.33;;;8.70;99.90;;;;;;5027124;28;20504;-51
2023/12/09 12:13:37;;;;;;;11.75;2.30;;;8.90;99.90;;;;;;5027427;28;20085;-47
2023/12/09 12:16:04;;;;;;;11.35;2.50;;;9.00;99.90;;;;;;5025156;28;20089;-47
2023/12/09 12:18:29;;;;;;;11.95;2.40;;;9.00;99.90;;;;;;5023502;28;20119;-48
2023/12/09 12:20:56;;;;;;;13.23;2.33;;;9.90;99.90;;;;;;5009615;28;20045;-48
2023/12/09 12:23:22;;;;;;;12.57;2.35;;;8.90;99.90;;;;;;5014964;28;20131;-47
2023/12/09 12:25:54;;;;;;;11.20;2.40;;;8.90;99.90;;;;;;5009477;28;20477;-47
2023/12/09 12:28:24;;;;;;;11.52;2.30;;;9.00;99.90;;;;;;5008385;28;20433;-50
2023/12/09 12:31:01;;;;;;;13.05;2.38;;;8.90;99.90;;;;;;5010366;28;20046;-49
2023/12/09 12:33:31;;;;;;;12.45;2.15;;;9.10;99.90;;;;;;5018073;28;20083;-47
2023/12/09 12:35:58;;;;;;;10.52;2.35;;;8.90;99.90;;;;;;5021421;28;20037;-50
2023/12/09 12:38:25;;;;;;;14.45;2.22;;;8.90;99.90;;;;;;5020436;28;20125;-52